Time;durP1;ratioP1;P1;durP2;ratioP2;P2;SDS_P1;SDS_P2;PMS_P1;PMS_P2;Temp;Humidity;BMP_temperature;BMP_pressure;BME280_temperature;BME280_humidity;BME280_pressure;Samples;Min_cycle;Max_cycle;Signal;HPM_P1;HPM_P2
2021/10/20 00:02:26;;;;;;;4.63;2.20;;;;;;;;;;4993184;28;20046;-47
2021/10/20 00:04:54;;;;;;;5.38;2.20;;;;;;;;;;4993867;28;20444;-46
2021/10/20 00:07:21;;;;;;;3.95;2.05;;;;;;;;;;4995326;28;20049;-46
2021/10/20 00:09:48;;;;;;;3.28;1.80;;;;;;;;;;4997891;28;20054;-47
2021/10/20 00:12:15;;;;;;;3.58;1.83;;;;;;;;;;4994203;28;20515;-46
2021/10/20 00:14:42;;;;;;;3.30;2.10;;;;;;;;;;4994442;28;20049;-46
2021/10/20 00:17:09;;;;;;;4.47;2.00;;;;;;;;;;4992929;28;20074;-46
2021/10/20 00:19:36;;;;;;;3.10;1.80;;;;;;;;;;4992899;28;20053;-45
2021/10/20 00:22:03;;;;;;;3.53;2.13;;;;;;;;;;5004965;28;20089;-45
2021/10/20 00:24:29;;;;;;;6.07;1.77;;;;;;;;;;4987759;28;20046;-45
2021/10/20 00:26:56;;;;;;;3.72;2.22;;;;;;;;;;5004351;28;20038;-46
2021/10/20 00:29:23;;;;;;;5.18;2.05;;;;;;;;;;4994087;28;20042;-47
2021/10/20 00:31:50;;;;;;;3.80;1.83;;;;;;;;;;5005343;28;20121;-47
2021/10/20 00:34:17;;;;;;;3.42;2.00;;;;;;;;;;4993535;28;20109;-45
2021/10/20 00:36:43;;;;;;;3.30;2.10;;;;;;;;;;4993909;28;20049;-45
2021/10/20 00:39:10;;;;;;;5.47;2.17;;;;;;;;;;4994350;28;20038;-47
2021/10/20 00:41:37;;;;;;;4.47;2.30;;;;;;;;;;5007252;28;20069;-44
2021/10/20 00:44:04;;;;;;;4.20;2.03;;;;;;;;;;4993820;28;20185;-45
2021/10/20 00:46:30;;;;;;;4.18;2.10;;;;;;;;;;4994213;28;20073;-46
2021/10/20 00:48:57;;;;;;;5.82;2.00;;;;;;;;;;4994893;28;20046;-46
2021/10/20 00:51:27;;;;;;;3.58;1.77;;;;;;;;;;5009079;28;20050;-47
2021/10/20 00:53:57;;;;;;;3.90;2.17;;;;;;;;;;4992586;28;20050;-47
2021/10/20 00:56:24;;;;;;;4.72;2.13;;;;;;;;;;4993523;28;20106;-47
2021/10/20 00:58:52;;;;;;;2.92;1.90;;;;;;;;;;4991741;28;20048;-47
2021/10/20 01:01:18;;;;;;;4.28;1.98;;;;;;;;;;4993571;28;20122;-47
2021/10/20 01:03:46;;;;;;;3.25;1.77;;;;;;;;;;4992732;28;20408;-47
2021/10/20 01:06:13;;;;;;;2.92;1.80;;;;;;;;;;4993443;28;20042;-46
2021/10/20 01:08:40;;;;;;;3.40;1.83;;;;;;;;;;5023745;22;20045;-47
2021/10/20 01:11:07;;;;;;;3.33;1.70;;;;;;;;;;5032618;28;20040;-45
2021/10/20 01:13:34;;;;;;;3.45;1.75;;;;;;;;;;5031714;28;20041;-46
2021/10/20 01:16:01;;;;;;;3.45;1.80;;;;;;;;;;5014967;28;20128;-45
2021/10/20 01:18:28;;;;;;;4.20;1.80;;;;;;;;;;5026233;28;20036;-45
2021/10/20 01:20:57;;;;;;;3.75;2.25;;;;;;;;;;5032859;28;20041;-50
2021/10/20 01:23:24;;;;;;;3.97;2.00;;;;;;;;;;5031846;28;20524;-47
2021/10/20 01:25:51;;;;;;;4.55;1.85;;;;;;;;;;5017190;28;20052;-46
2021/10/20 01:28:18;;;;;;;5.40;2.03;;;;;;;;;;5032305;28;20120;-47
2021/10/20 01:30:44;;;;;;;4.65;1.85;;;;;;;;;;5020041;28;20041;-44
2021/10/20 01:33:11;;;;;;;4.03;2.05;;;;;;;;;;5011880;28;20096;-46
2021/10/20 01:35:38;;;;;;;4.13;2.20;;;;;;;;;;5026609;28;20418;-45
2021/10/20 01:38:04;;;;;;;3.85;2.10;;;;;;;;;;5022158;28;20394;-47
2021/10/20 01:40:31;;;;;;;3.28;1.90;;;;;;;;;;5019802;28;20047;-45
2021/10/20 01:42:58;;;;;;;3.05;1.98;;;;;;;;;;5032138;28;20498;-50
2021/10/20 01:45:25;;;;;;;3.40;1.73;;;;;;;;;;5031174;28;20044;-46
2021/10/20 01:47:52;;;;;;;4.40;2.03;;;;;;;;;;5012258;28;20048;-48
2021/10/20 01:50:18;;;;;;;3.20;1.80;;;;;;;;;;5012720;28;20128;-47
2021/10/20 01:52:45;;;;;;;3.40;1.83;;;;;;;;;;5031997;28;20049;-46
2021/10/20 01:55:13;;;;;;;3.60;1.90;;;;;;;;;;5016910;28;20050;-46
2021/10/20 01:57:40;;;;;;;3.75;1.85;;;;;;;;;;5031225;28;20092;-46
2021/10/20 02:00:07;;;;;;;5.50;2.13;;;;;;;;;;5012992;28;20487;-46
2021/10/20 02:02:40;;;;;;;;;;;;;;;;;;5032150;28;20096;-45
2021/10/20 02:05:08;;;;;;;3.53;2.08;;;;;;;;;;5030741;28;19952;-47
2021/10/20 02:07:35;;;;;;;4.40;2.05;;;;;;;;;;5031804;28;20446;-45
2021/10/20 02:10:04;;;;;;;4.20;2.10;;;;;;;;;;5024524;28;20078;-45
2021/10/20 02:12:31;;;;;;;4.32;2.33;;;;;;;;;;5031644;28;20052;-48
2021/10/20 02:14:57;;;;;;;3.75;2.03;;;;;;;;;;5030804;28;20418;-45
2021/10/20 02:17:24;;;;;;;4.30;2.17;;;;;;;;;;5026575;28;20060;-45
2021/10/20 02:19:51;;;;;;;5.65;2.42;;;;;;;;;;5027068;28;20041;-45
2021/10/20 02:22:18;;;;;;;3.40;2.08;;;;;;;;;;5031957;28;20078;-48
2021/10/20 02:24:44;;;;;;;3.85;2.10;;;;;;;;;;5014883;28;20076;-45
2021/10/20 02:27:11;;;;;;;3.25;1.85;;;;;;;;;;5012490;28;20030;-48
2021/10/20 02:29:38;;;;;;;3.80;2.00;;;;;;;;;;5012297;28;20140;-46
2021/10/20 02:32:05;;;;;;;3.83;1.90;;;;;;;;;;5026173;28;20409;-45
2021/10/20 02:34:32;;;;;;;4.60;2.15;;;;;;;;;;5030893;28;20053;-44
2021/10/20 02:36:58;;;;;;;3.42;1.90;;;;;;;;;;5023113;28;20431;-46
2021/10/20 02:39:25;;;;;;;4.10;1.75;;;;;;;;;;5031105;28;20157;-46
2021/10/20 02:41:52;;;;;;;5.18;2.20;;;;;;;;;;5013525;28;20042;-46
2021/10/20 02:44:19;;;;;;;4.15;1.90;;;;;;;;;;5029212;28;20109;-45
2021/10/20 02:46:45;;;;;;;4.40;2.28;;;;;;;;;;5032724;28;20055;-45
2021/10/20 02:49:12;;;;;;;4.35;2.40;;;;;;;;;;5027079;28;20618;-45
2021/10/20 02:51:39;;;;;;;3.25;2.00;;;;;;;;;;5031677;28;20037;-46
2021/10/20 02:54:06;;;;;;;4.28;2.00;;;;;;;;;;5031056;28;20041;-45
2021/10/20 02:56:32;;;;;;;3.72;2.00;;;;;;;;;;5015577;28;20120;-45
2021/10/20 02:58:59;;;;;;;2.67;1.52;;;;;;;;;;5024458;28;20041;-49
2021/10/20 03:01:26;;;;;;;3.78;2.13;;;;;;;;;;5027736;28;20061;-45
2021/10/20 03:03:53;;;;;;;4.35;2.05;;;;;;;;;;5021979;28;20543;-48
2021/10/20 03:06:20;;;;;;;3.53;2.05;;;;;;;;;;5031318;28;20041;-45
2021/10/20 03:08:48;;;;;;;3.75;2.00;;;;;;;;;;5023496;28;20407;-46
2021/10/20 03:11:15;;;;;;;5.10;2.42;;;;;;;;;;5017083;28;20038;-45
2021/10/20 03:13:41;;;;;;;4.97;1.90;;;;;;;;;;5030502;28;20420;-47
2021/10/20 03:16:08;;;;;;;3.15;1.90;;;;;;;;;;5031529;28;20042;-44
2021/10/20 03:18:35;;;;;;;4.95;2.10;;;;;;;;;;5026578;28;20065;-47
2021/10/20 03:21:02;;;;;;;4.55;1.98;;;;;;;;;;5030432;28;20069;-48
2021/10/20 03:23:29;;;;;;;3.58;1.90;;;;;;;;;;5029867;28;20072;-46
2021/10/20 03:25:56;;;;;;;3.08;1.92;;;;;;;;;;5030500;28;20493;-47
2021/10/20 03:28:22;;;;;;;6.13;2.03;;;;;;;;;;5023054;28;20038;-46
2021/10/20 03:30:49;;;;;;;3.17;2.15;;;;;;;;;;5024557;28;20120;-46
2021/10/20 03:33:16;;;;;;;3.88;1.90;;;;;;;;;;5033854;28;20065;-47
2021/10/20 03:35:43;;;;;;;4.43;2.40;;;;;;;;;;5034724;28;20045;-46
2021/10/20 03:38:11;;;;;;;3.70;2.50;;;;;;;;;;5031816;28;20118;-46
2021/10/20 03:40:37;;;;;;;4.55;2.00;;;;;;;;;;5014879;28;20046;-48
2021/10/20 03:43:05;;;;;;;4.07;2.80;;;;;;;;;;5022840;28;20155;-49
2021/10/20 03:45:32;;;;;;;4.72;2.00;;;;;;;;;;5033640;28;20045;-45
2021/10/20 03:47:58;;;;;;;3.72;1.95;;;;;;;;;;5032952;28;20068;-46
2021/10/20 03:50:25;;;;;;;3.75;2.10;;;;;;;;;;5034631;28;20045;-45
2021/10/20 03:52:52;;;;;;;3.97;2.03;;;;;;;;;;5034302;28;20041;-48
2021/10/20 03:55:18;;;;;;;4.80;2.60;;;;;;;;;;5028387;28;20048;-47
2021/10/20 03:57:45;;;;;;;4.57;2.20;;;;;;;;;;5019189;28;20482;-49
2021/10/20 04:00:13;;;;;;;5.78;2.50;;;;;;;;;;5026377;28;20038;-45
2021/10/20 04:02:43;;;;;;;6.70;2.33;;;;;;;;;;5018858;28;20493;-45
2021/10/20 04:05:13;;;;;;;3.30;2.00;;;;;;;;;;5033663;28;20037;-47
2021/10/20 04:07:40;;;;;;;3.50;2.20;;;;;;;;;;5030188;28;20120;-45
2021/10/20 04:10:10;;;;;;;3.28;2.03;;;;;;;;;;5018703;28;20041;-47
2021/10/20 04:12:37;;;;;;;9.15;2.60;;;;;;;;;;5033437;28;20051;-47
2021/10/20 04:15:04;;;;;;;6.20;2.40;;;;;;;;;;5032711;28;20049;-47
2021/10/20 04:17:30;;;;;;;3.17;1.85;;;;;;;;;;5015124;28;20046;-46
2021/10/20 04:19:58;;;;;;;3.83;2.30;;;;;;;;;;5034115;28;20042;-46
2021/10/20 04:22:25;;;;;;;3.42;2.15;;;;;;;;;;5033475;28;20071;-44
2021/10/20 04:24:52;;;;;;;4.35;2.00;;;;;;;;;;5021540;28;20045;-47
2021/10/20 04:27:19;;;;;;;3.70;2.15;;;;;;;;;;5014201;28;20072;-46
2021/10/20 04:29:45;;;;;;;5.38;2.20;;;;;;;;;;5026789;28;20099;-44
2021/10/20 04:32:12;;;;;;;3.45;1.90;;;;;;;;;;5033519;28;20080;-46
2021/10/20 04:34:39;;;;;;;6.82;2.70;;;;;;;;;;5032462;28;20402;-46
2021/10/20 04:37:06;;;;;;;4.15;2.20;;;;;;;;;;5032222;28;20053;-44
2021/10/20 04:39:33;;;;;;;5.18;2.70;;;;;;;;;;5032668;28;20645;-46
2021/10/20 04:41:59;;;;;;;4.22;2.28;;;;;;;;;;5032873;28;20483;-45
2021/10/20 04:44:26;;;;;;;3.30;2.13;;;;;;;;;;5031016;28;20065;-46
2021/10/20 04:46:53;;;;;;;3.65;1.90;;;;;;;;;;5022196;28;20030;-46
2021/10/20 04:49:20;;;;;;;4.32;2.08;;;;;;;;;;5020668;28;20041;-47
2021/10/20 04:51:46;;;;;;;3.65;1.90;;;;;;;;;;5016036;28;20046;-46
2021/10/20 04:54:13;;;;;;;4.22;2.08;;;;;;;;;;5027140;28;20481;-46
2021/10/20 04:56:40;;;;;;;5.25;2.00;;;;;;;;;;5018887;28;20042;-44
2021/10/20 04:59:06;;;;;;;4.10;2.08;;;;;;;;;;5018753;28;20046;-45
2021/10/20 05:01:33;;;;;;;5.32;2.55;;;;;;;;;;5028876;28;20052;-45
2021/10/20 05:04:00;;;;;;;5.53;3.42;;;;;;;;;;5023298;28;20045;-47
2021/10/20 05:06:27;;;;;;;4.80;2.58;;;;;;;;;;5018170;28;20141;-45
2021/10/20 05:08:54;;;;;;;6.32;2.60;;;;;;;;;;5024400;28;20087;-46
2021/10/20 05:11:20;;;;;;;7.20;2.22;;;;;;;;;;5018144;28;20040;-47
2021/10/20 05:13:47;;;;;;;5.25;2.47;;;;;;;;;;5030639;28;20402;-46
2021/10/20 05:16:14;;;;;;;4.13;2.17;;;;;;;;;;5032444;28;20385;-46
2021/10/20 05:18:41;;;;;;;4.60;2.83;;;;;;;;;;5027112;28;20045;-49
2021/10/20 05:21:08;;;;;;;3.58;2.20;;;;;;;;;;5032496;28;20038;-48
2021/10/20 05:23:34;;;;;;;8.75;2.50;;;;;;;;;;5031450;28;20056;-45
2021/10/20 05:26:01;;;;;;;6.35;3.30;;;;;;;;;;5032526;28;20517;-45
2021/10/20 05:28:28;;;;;;;7.63;2.85;;;;;;;;;;5030486;28;20041;-46
2021/10/20 05:30:55;;;;;;;7.05;2.90;;;;;;;;;;5030742;28;20092;-47
2021/10/20 05:33:21;;;;;;;3.80;1.88;;;;;;;;;;5018100;28;20046;-49
2021/10/20 05:35:49;;;;;;;5.55;1.80;;;;;;;;;;5021855;28;20053;-47
2021/10/20 05:38:15;;;;;;;4.50;2.03;;;;;;;;;;5029505;28;20044;-45
2021/10/20 05:40:42;;;;;;;7.63;2.83;;;;;;;;;;5027006;28;20041;-45
2021/10/20 05:43:09;;;;;;;3.47;1.90;;;;;;;;;;5031450;28;20045;-48
2021/10/20 05:45:36;;;;;;;5.40;2.13;;;;;;;;;;5029130;28;20133;-44
2021/10/20 05:48:03;;;;;;;4.38;2.47;;;;;;;;;;5042637;28;20037;-44
2021/10/20 05:50:30;;;;;;;4.25;1.75;;;;;;;;;;5031589;28;20067;-46
2021/10/20 05:52:57;;;;;;;6.95;2.20;;;;;;;;;;5029835;28;20046;-45
2021/10/20 05:55:24;;;;;;;3.55;1.80;;;;;;;;;;5011960;28;20053;-46
2021/10/20 05:57:51;;;;;;;4.32;1.90;;;;;;;;;;5019312;28;20068;-45
2021/10/20 06:00:17;;;;;;;4.85;1.90;;;;;;;;;;5029676;28;20049;-46
2021/10/20 06:02:44;;;;;;;3.03;1.77;;;;;;;;;;5030575;28;20079;-45
2021/10/20 06:05:11;;;;;;;4.65;1.80;;;;;;;;;;5029608;28;20099;-45
2021/10/20 06:07:39;;;;;;;9.65;2.83;;;;;;;;;;5030819;28;20125;-48
2021/10/20 06:10:06;;;;;;;4.03;1.83;;;;;;;;;;5021848;28;20045;-45
2021/10/20 06:12:32;;;;;;;3.30;2.03;;;;;;;;;;5031125;28;20080;-45
2021/10/20 06:14:59;;;;;;;4.05;1.88;;;;;;;;;;5031090;28;20498;-48
2021/10/20 06:17:26;;;;;;;3.95;2.60;;;;;;;;;;5031656;28;20124;-47
2021/10/20 06:19:53;;;;;;;4.82;1.73;;;;;;;;;;5019512;28;20064;-45
2021/10/20 06:22:20;;;;;;;4.38;2.40;;;;;;;;;;5024381;28;20048;-45
2021/10/20 06:24:46;;;;;;;4.00;2.10;;;;;;;;;;5030018;28;20045;-46
2021/10/20 06:27:13;;;;;;;5.90;2.50;;;;;;;;;;5027749;28;20056;-48
2021/10/20 06:29:40;;;;;;;3.60;2.13;;;;;;;;;;5023096;28;20128;-46
2021/10/20 06:32:07;;;;;;;8.07;2.65;;;;;;;;;;5016671;28;20486;-46
2021/10/20 06:34:34;;;;;;;7.07;2.90;;;;;;;;;;5029247;28;20103;-47
2021/10/20 06:37:01;;;;;;;5.80;2.90;;;;;;;;;;5026908;28;20156;-47
2021/10/20 06:39:28;;;;;;;5.78;2.45;;;;;;;;;;5028600;28;20048;-45
2021/10/20 06:41:55;;;;;;;6.82;3.00;;;;;;;;;;5028319;28;20375;-46
2021/10/20 06:44:22;;;;;;;8.40;3.08;;;;;;;;;;5022981;28;20402;-50
2021/10/20 06:46:48;;;;;;;5.55;3.00;;;;;;;;;;5027999;28;20029;-46
2021/10/20 06:49:15;;;;;;;7.35;2.63;;;;;;;;;;5017644;28;20047;-51
2021/10/20 06:51:42;;;;;;;8.68;3.03;;;;;;;;;;5021123;28;20055;-49
2021/10/20 06:54:11;;;;;;;6.40;2.50;;;;;;;;;;5019709;28;20037;-46
2021/10/20 06:56:37;;;;;;;6.70;2.20;;;;;;;;;;5020397;28;20037;-52
2021/10/20 06:59:04;;;;;;;8.23;2.95;;;;;;;;;;5023533;28;20048;-50
2021/10/20 07:01:31;;;;;;;7.30;3.00;;;;;;;;;;5023796;28;20080;-48
2021/10/20 07:03:58;;;;;;;10.43;2.80;;;;;;;;;;5023396;28;20044;-48
2021/10/20 07:06:27;;;;;;;4.78;2.50;;;;;;;;;;5022244;28;20034;-48
2021/10/20 07:08:55;;;;;;;5.43;2.55;;;;;;;;;;5023779;28;20505;-47
2021/10/20 07:11:22;;;;;;;6.55;3.70;;;;;;;;;;5028979;28;20211;-48
2021/10/20 07:13:49;;;;;;;11.35;3.60;;;;;;;;;;5029477;28;20063;-49
2021/10/20 07:16:16;;;;;;;11.77;4.05;;;;;;;;;;5026795;28;20418;-47
2021/10/20 07:18:43;;;;;;;6.28;2.90;;;;;;;;;;5026975;28;20093;-47
2021/10/20 07:21:10;;;;;;;7.45;3.20;;;;;;;;;;5022955;28;20046;-48
2021/10/20 07:23:37;;;;;;;5.63;3.08;;;;;;;;;;5028240;28;20120;-49
2021/10/20 07:26:04;;;;;;;7.15;3.42;;;;;;;;;;5028440;28;20041;-49
2021/10/20 07:28:30;;;;;;;10.25;2.95;;;;;;;;;;5016077;28;20040;-48
2021/10/20 07:30:57;;;;;;;7.90;3.08;;;;;;;;;;5018097;28;20651;-51
2021/10/20 07:33:24;;;;;;;7.85;2.92;;;;;;;;;;5027289;28;20044;-48
2021/10/20 07:35:51;;;;;;;6.35;3.00;;;;;;;;;;5025974;28;20045;-47
2021/10/20 07:38:18;;;;;;;9.18;2.80;;;;;;;;;;5013874;28;20057;-50
2021/10/20 07:40:45;;;;;;;6.03;2.55;;;;;;;;;;5014201;28;20030;-49
2021/10/20 07:43:12;;;;;;;8.80;2.78;;;;;;;;;;5028308;28;20534;-50
2021/10/20 07:45:39;;;;;;;5.53;2.78;;;;;;;;;;5027926;28;20076;-48
2021/10/20 07:48:05;;;;;;;10.88;4.10;;;;;;;;;;5020903;28;20041;-49
2021/10/20 07:50:33;;;;;;;10.93;3.20;;;;;;;;;;5027052;28;20491;-51
2021/10/20 07:53:00;;;;;;;6.47;3.10;;;;;;;;;;5028847;28;20176;-49
2021/10/20 07:55:27;;;;;;;9.57;3.15;;;;;;;;;;5043755;28;20045;-48
2021/10/20 07:57:54;;;;;;;9.23;2.97;;;;;;;;;;5020726;28;20034;-47
2021/10/20 08:00:22;;;;;;;8.18;2.85;;;;;;;;;;5021953;28;20495;-47
2021/10/20 08:02:49;;;;;;;10.43;2.88;;;;;;;;;;5015924;28;20037;-49
2021/10/20 08:05:16;;;;;;;11.13;4.20;;;;;;;;;;5023771;28;20049;-48
2021/10/20 08:07:46;;;;;;;7.07;2.85;;;;;;;;;;5026786;28;20049;-52
2021/10/20 08:10:17;;;;;;;7.22;2.97;;;;;;;;;;5028285;28;20037;-48
2021/10/20 08:12:45;;;;;;;8.25;2.53;;;;;;;;;;5028101;28;20075;-47
2021/10/20 08:15:14;;;;;;;4.47;1.85;;;;;;;;;;5024673;28;20569;-52
2021/10/20 08:17:41;;;;;;;6.55;2.00;;;;;;;;;;5031547;28;20073;-47
2021/10/20 08:20:11;;;;;;;4.75;2.25;;;;;;;;;;5031233;28;20128;-47
2021/10/20 08:22:38;;;;;;;5.95;2.22;;;;;;;;;;5030836;28;20048;-48
2021/10/20 08:25:06;;;;;;;5.75;2.17;;;;;;;;;;5033103;28;20069;-52
2021/10/20 08:27:33;;;;;;;3.60;1.85;;;;;;;;;;5030010;28;20116;-46
2021/10/20 08:30:00;;;;;;;5.30;1.90;;;;;;;;;;5012191;28;20042;-51
2021/10/20 08:32:26;;;;;;;5.45;1.50;;;;;;;;;;5032996;28;20128;-47
2021/10/20 08:34:53;;;;;;;4.15;2.25;;;;;;;;;;5032413;28;20041;-47
2021/10/20 08:37:20;;;;;;;4.18;1.73;;;;;;;;;;5032041;28;20064;-52
2021/10/20 08:39:47;;;;;;;3.22;1.40;;;;;;;;;;5021752;28;20057;-49
2021/10/20 08:42:14;;;;;;;3.95;1.40;;;;;;;;;;5027608;28;20049;-48
2021/10/20 08:45:01;;;;;;;3.95;1.50;;;;;;;;;;5033561;28;20510;-51
2021/10/20 08:47:28;;;;;;;6.00;1.73;;;;;;;;;;5033461;28;20520;-49
2021/10/20 08:49:55;;;;;;;15.13;3.03;;;;;;;;;;5021222;28;20037;-50
2021/10/20 08:52:22;;;;;;;4.05;1.73;;;;;;;;;;5033386;28;20457;-48
2021/10/20 08:54:49;;;;;;;8.75;1.75;;;;;;;;;;5032914;28;20041;-49
2021/10/20 08:57:16;;;;;;;4.05;1.77;;;;;;;;;;5025558;28;20045;-48
2021/10/20 08:59:43;;;;;;;4.28;1.55;;;;;;;;;;5024874;28;20073;-50
2021/10/20 09:02:11;;;;;;;3.47;1.40;;;;;;;;;;5027087;28;20050;-49
2021/10/20 09:04:38;;;;;;;4.03;1.38;;;;;;;;;;5032292;28;20487;-47
2021/10/20 09:07:13;;;;;;;2.47;1.30;;;;;;;;;;5032201;28;20041;-47
2021/10/20 09:09:40;;;;;;;2.15;1.23;;;;;;;;;;5024598;28;20122;-47
2021/10/20 09:12:07;;;;;;;2.10;1.08;;;;;;;;;;5029681;28;20519;-48
2021/10/20 09:14:33;;;;;;;3.75;1.10;;;;;;;;;;5029080;28;20041;-50
2021/10/20 09:17:02;;;;;;;4.10;1.63;;;;;;;;;;5030371;28;20045;-48
2021/10/20 09:19:32;;;;;;;4.80;1.20;;;;;;;;;;5029943;28;20560;-47
2021/10/20 09:22:03;;;;;;;3.90;1.23;;;;;;;;;;5031630;28;20052;-47
2021/10/20 09:24:35;;;;;;;3.92;1.20;;;;;;;;;;5029907;28;20079;-48
2021/10/20 09:27:03;;;;;;;4.95;1.80;;;;;;;;;;5012311;28;20134;-48
2021/10/20 09:29:31;;;;;;;8.77;1.30;;;;;;;;;;5018320;28;20673;-51
2021/10/20 09:31:58;;;;;;;6.43;1.95;;;;;;;;;;5029032;28;20202;-48
2021/10/20 09:34:38;;;;;;;3.08;1.30;;;;;;;;;;5030235;28;20457;-49
2021/10/20 09:37:05;;;;;;;3.90;1.27;;;;;;;;;;5032687;28;20415;-51
2021/10/20 09:39:33;;;;;;;4.78;1.40;;;;;;;;;;5021663;28;20129;-47
2021/10/20 09:42:11;;;;;;;2.60;1.23;;;;;;;;;;5032745;28;20038;-50
2021/10/20 09:44:48;;;;;;;4.38;1.42;;;;;;;;;;5030549;28;20410;-50
2021/10/20 09:47:15;;;;;;;3.25;1.50;;;;;;;;;;5022297;28;20128;-49
2021/10/20 09:49:54;;;;;;;2.42;1.48;;;;;;;;;;5031943;28;20037;-49
2021/10/20 09:52:21;;;;;;;3.80;1.52;;;;;;;;;;5033050;28;20050;-51
2021/10/20 09:54:49;;;;;;;2.67;1.67;;;;;;;;;;5023883;28;20048;-49
2021/10/20 09:57:16;;;;;;;3.80;1.83;;;;;;;;;;5013034;28;20046;-49
2021/10/20 09:59:43;;;;;;;3.75;1.58;;;;;;;;;;5024242;28;20081;-47
2021/10/20 10:02:11;;;;;;;5.85;1.70;;;;;;;;;;5015116;28;21768;-49
2021/10/20 10:04:39;;;;;;;2.33;1.30;;;;;;;;;;5030768;28;20051;-47
2021/10/20 10:07:06;;;;;;;5.00;1.70;;;;;;;;;;5027017;28;20036;-51
2021/10/20 10:09:33;;;;;;;2.70;1.60;;;;;;;;;;5016145;28;20033;-51
2021/10/20 10:12:03;;;;;;;7.65;2.00;;;;;;;;;;5029227;28;20045;-51
2021/10/20 10:14:34;;;;;;;4.00;1.60;;;;;;;;;;5022016;28;20473;-49
2021/10/20 10:17:02;;;;;;;4.43;1.52;;;;;;;;;;5029657;28;20440;-49
2021/10/20 10:19:30;;;;;;;4.07;1.80;;;;;;;;;;5030628;28;20045;-46
2021/10/20 10:21:59;;;;;;;3.67;1.65;;;;;;;;;;5027739;28;20046;-48
2021/10/20 10:24:33;;;;;;;4.43;1.77;;;;;;;;;;5031263;28;20044;-48
2021/10/20 10:27:00;;;;;;;2.47;1.40;;;;;;;;;;5020079;28;20041;-47
2021/10/20 10:29:28;;;;;;;1.98;1.27;;;;;;;;;;5029429;28;20038;-47
2021/10/20 10:31:58;;;;;;;4.97;1.50;;;;;;;;;;5027911;28;20580;-50
2021/10/20 10:34:34;;;;;;;4.15;2.28;;;;;;;;;;5030533;28;20042;-48
2021/10/20 10:37:01;;;;;;;3.47;1.52;;;;;;;;;;5030559;28;20572;-50
2021/10/20 10:39:29;;;;;;;3.17;1.50;;;;;;;;;;5028037;28;20450;-48
2021/10/20 10:41:57;;;;;;;2.22;1.40;;;;;;;;;;5028380;28;20434;-52
2021/10/20 10:44:25;;;;;;;6.05;1.65;;;;;;;;;;5031290;28;20044;-47
2021/10/20 10:47:04;;;;;;;2.88;1.42;;;;;;;;;;5028345;28;20061;-50
2021/10/20 10:49:34;;;;;;;3.75;1.52;;;;;;;;;;5026918;28;20044;-47
2021/10/20 10:52:03;;;;;;;5.20;1.42;;;;;;;;;;5031762;28;20041;-49
2021/10/20 10:54:31;;;;;;;4.72;1.60;;;;;;;;;;5031136;28;20045;-47
2021/10/20 10:57:11;;;;;;;2.58;1.50;;;;;;;;;;5025977;28;20044;-48
2021/10/20 10:59:38;;;;;;;2.60;1.45;;;;;;;;;;5027647;28;20081;-49
2021/10/20 11:02:25;;;;;;;3.22;1.35;;;;;;;;;;5026969;28;20048;-50
2021/10/20 11:04:52;;;;;;;2.50;1.33;;;;;;;;;;5030228;28;20049;-47
2021/10/20 11:07:20;;;;;;;2.80;1.58;;;;;;;;;;5031160;28;20034;-48
2021/10/20 11:09:47;;;;;;;3.35;1.30;;;;;;;;;;5028166;28;20539;-50
2021/10/20 11:12:14;;;;;;;2.85;1.48;;;;;;;;;;5027801;28;20038;-49
2021/10/20 11:14:41;;;;;;;2.95;1.70;;;;;;;;;;5014564;28;20120;-51
2021/10/20 11:17:10;;;;;;;3.25;1.92;;;;;;;;;;5026519;28;20056;-49
2021/10/20 11:19:37;;;;;;;6.50;2.05;;;;;;;;;;5026235;28;20042;-48
2021/10/20 11:22:04;;;;;;;4.53;1.52;;;;;;;;;;5029634;28;20033;-49
2021/10/20 11:24:35;;;;;;;3.20;1.52;;;;;;;;;;5030287;28;20069;-52
2021/10/20 11:27:05;;;;;;;3.58;1.90;;;;;;;;;;5027557;28;20041;-49
2021/10/20 11:29:41;;;;;;;8.48;1.70;;;;;;;;;;5011564;28;20136;-50
2021/10/20 11:32:11;;;;;;;3.38;1.52;;;;;;;;;;5021139;28;20152;-49
2021/10/20 11:34:39;;;;;;;4.22;2.10;;;;;;;;;;5031186;28;20063;-51
2021/10/20 11:37:06;;;;;;;3.47;1.70;;;;;;;;;;5029646;28;20042;-48
2021/10/20 11:39:33;;;;;;;3.42;1.80;;;;;;;;;;5028463;28;20562;-50
2021/10/20 11:42:01;;;;;;;3.80;1.70;;;;;;;;;;5030177;28;20048;-46
2021/10/20 11:44:29;;;;;;;2.97;1.80;;;;;;;;;;5031013;28;20041;-50
2021/10/20 11:47:00;;;;;;;4.55;1.77;;;;;;;;;;5028946;28;20042;-48
2021/10/20 11:49:27;;;;;;;4.28;2.00;;;;;;;;;;5030114;28;20065;-48
2021/10/20 11:51:55;;;;;;;4.15;1.90;;;;;;;;;;5034768;28;20132;-47
2021/10/20 11:54:25;;;;;;;3.97;1.67;;;;;;;;;;5030713;28;20065;-48
2021/10/20 11:56:52;;;;;;;7.72;2.17;;;;;;;;;;5030677;28;20041;-49
2021/10/20 11:59:20;;;;;;;3.78;1.90;;;;;;;;;;5028844;28;20038;-49
2021/10/20 12:01:48;;;;;;;4.28;1.88;;;;;;;;;;5033067;28;20046;-51
2021/10/20 12:04:15;;;;;;;3.22;1.88;;;;;;;;;;5033221;28;20048;-47
2021/10/20 12:06:42;;;;;;;4.10;1.80;;;;;;;;;;5033698;28;20418;-47
2021/10/20 12:09:13;;;;;;;8.15;1.98;;;;;;;;;;5019913;28;20049;-49
2021/10/20 12:11:40;;;;;;;7.43;1.98;;;;;;;;;;5035263;28;20095;-48
2021/10/20 12:14:08;;;;;;;5.35;1.88;;;;;;;;;;5034816;28;20392;-46
2021/10/20 12:16:37;;;;;;;2.83;1.60;;;;;;;;;;5034954;28;20553;-47
2021/10/20 12:19:08;;;;;;;4.05;1.70;;;;;;;;;;5015362;28;20129;-48
2021/10/20 12:21:34;;;;;;;4.93;1.60;;;;;;;;;;5015501;28;20076;-48
2021/10/20 12:24:03;;;;;;;3.53;1.67;;;;;;;;;;5014962;28;20045;-46
2021/10/20 12:26:30;;;;;;;3.05;1.58;;;;;;;;;;5020700;28;20044;-51
2021/10/20 12:29:00;;;;;;;7.32;2.20;;;;;;;;;;5034883;28;20124;-49
2021/10/20 12:31:28;;;;;;;4.47;1.92;;;;;;;;;;5016480;28;20065;-50
2021/10/20 12:33:55;;;;;;;4.95;1.95;;;;;;;;;;5014726;28;20077;-48
2021/10/20 12:36:27;;;;;;;7.07;2.30;;;;;;;;;;5015265;28;20042;-49
2021/10/20 12:38:55;;;;;;;12.48;2.92;;;;;;;;;;5014973;28;20459;-51
2021/10/20 12:41:23;;;;;;;7.18;2.08;;;;;;;;;;5015169;28;20072;-49
2021/10/20 12:43:51;;;;;;;4.63;2.33;;;;;;;;;;5023075;28;20078;-46
2021/10/20 12:46:29;;;;;;;3.10;1.80;;;;;;;;;;5034489;28;20124;-49
2021/10/20 12:48:55;;;;;;;4.07;2.05;;;;;;;;;;5021146;28;20124;-48
2021/10/20 12:51:36;;;;;;;3.30;2.00;;;;;;;;;;5014365;28;20049;-51
2021/10/20 12:54:05;;;;;;;3.60;2.20;;;;;;;;;;5014032;28;20495;-46
2021/10/20 12:56:32;;;;;;;3.05;2.03;;;;;;;;;;5026480;28;20037;-47
2021/10/20 12:59:05;;;;;;;3.72;1.90;;;;;;;;;;5015263;28;20077;-50
2021/10/20 13:01:32;;;;;;;2.75;1.92;;;;;;;;;;5027716;28;20072;-46
2021/10/20 13:03:59;;;;;;;5.03;2.15;;;;;;;;;;5033579;28;20463;-49
2021/10/20 13:06:26;;;;;;;4.75;2.25;;;;;;;;;;5033920;28;20522;-48
2021/10/20 13:08:53;;;;;;;5.45;2.25;;;;;;;;;;5029112;28;20084;-51
2021/10/20 13:11:20;;;;;;;3.50;2.10;;;;;;;;;;5037551;22;20038;-51
2021/10/20 13:13:47;;;;;;;4.55;2.30;;;;;;;;;;5032841;28;20463;-51
2021/10/20 13:16:14;;;;;;;2.78;2.03;;;;;;;;;;5032083;28;20053;-52
2021/10/20 13:18:41;;;;;;;4.78;2.50;;;;;;;;;;5027922;28;20045;-50
2021/10/20 13:21:07;;;;;;;4.30;2.40;;;;;;;;;;5032413;28;20051;-50
2021/10/20 13:23:36;;;;;;;5.30;2.20;;;;;;;;;;5012969;28;20057;-47
2021/10/20 13:26:03;;;;;;;7.25;2.38;;;;;;;;;;5012248;28;20045;-49
2021/10/20 13:28:31;;;;;;;4.20;2.60;;;;;;;;;;4993924;28;20114;-46
2021/10/20 13:30:57;;;;;;;5.22;2.42;;;;;;;;;;4993491;28;20485;-50
2021/10/20 13:33:25;;;;;;;5.93;2.50;;;;;;;;;;4993157;28;20084;-51
2021/10/20 13:35:52;;;;;;;6.00;2.00;;;;;;;;;;5010255;28;20475;-48
2021/10/20 13:38:21;;;;;;;5.38;2.38;;;;;;;;;;5013238;28;20053;-48
2021/10/20 13:40:48;;;;;;;3.88;2.28;;;;;;;;;;4999506;28;20621;-47
2021/10/20 13:43:15;;;;;;;5.85;2.40;;;;;;;;;;4992971;28;20322;-49
2021/10/20 13:45:42;;;;;;;4.55;2.33;;;;;;;;;;4993292;28;20045;-48
2021/10/20 13:48:09;;;;;;;4.03;2.70;;;;;;;;;;4993755;28;20483;-49
2021/10/20 13:50:36;;;;;;;5.25;3.10;;;;;;;;;;4993828;28;20045;-49
2021/10/20 13:53:03;;;;;;;3.90;2.05;;;;;;;;;;5011452;28;20045;-49
2021/10/20 13:55:30;;;;;;;3.92;2.15;;;;;;;;;;5012602;28;20502;-47
2021/10/20 13:57:58;;;;;;;4.15;2.10;;;;;;;;;;4995954;28;20054;-48
2021/10/20 14:00:25;;;;;;;4.28;2.47;;;;;;;;;;4993368;28;20508;-48
2021/10/20 14:02:52;;;;;;;6.35;2.03;;;;;;;;;;4992704;28;20445;-47
2021/10/20 14:05:19;;;;;;;3.85;1.95;;;;;;;;;;4992491;28;20038;-48
2021/10/20 14:07:46;;;;;;;5.03;2.40;;;;;;;;;;4992861;28;20054;-50
2021/10/20 14:10:18;;;;;;;4.65;2.30;;;;;;;;;;4992908;28;20081;-48
2021/10/20 14:12:44;;;;;;;5.50;2.40;;;;;;;;;;4992130;28;20050;-48
2021/10/20 14:15:11;;;;;;;3.00;2.00;;;;;;;;;;4992195;28;20053;-50
2021/10/20 14:17:38;;;;;;;5.07;2.25;;;;;;;;;;4992797;28;20121;-48
2021/10/20 14:20:06;;;;;;;4.40;2.20;;;;;;;;;;4992701;28;20046;-48
2021/10/20 14:22:33;;;;;;;3.67;2.10;;;;;;;;;;4992667;28;20053;-48
2021/10/20 14:25:00;;;;;;;3.47;2.28;;;;;;;;;;4991492;28;20133;-48
2021/10/20 14:27:27;;;;;;;4.40;2.20;;;;;;;;;;4992705;28;20125;-49
2021/10/20 14:29:54;;;;;;;9.57;2.30;;;;;;;;;;4993196;28;20077;-48
2021/10/20 14:32:21;;;;;;;5.38;2.10;;;;;;;;;;4992407;28;20046;-52
2021/10/20 14:34:48;;;;;;;4.55;2.67;;;;;;;;;;4991925;28;20046;-51
2021/10/20 14:37:15;;;;;;;3.72;2.10;;;;;;;;;;4992584;28;20100;-49
2021/10/20 14:39:43;;;;;;;8.65;2.08;;;;;;;;;;4992430;28;20474;-51
2021/10/20 14:42:10;;;;;;;3.45;2.20;;;;;;;;;;4995188;28;20042;-53
2021/10/20 14:44:36;;;;;;;2.85;2.10;;;;;;;;;;5011553;28;20416;-50
2021/10/20 14:47:03;;;;;;;4.00;2.38;;;;;;;;;;5012010;28;20048;-53